sensor_id;sensor_type;location;lat;lon;timestamp;P1;durP1;ratioP1;P2;durP2;ratioP2
7823;SDS011;3957;48.61947800;9.05303100;2023-05-21T00:00:16;14.60;;;13.05;;
7823;SDS011;3957;48.61947800;9.05303100;2023-05-21T00:01:18;15.90;;;12.80;;
7823;SDS011;3957;48.61947800;9.05303100;2023-05-21T00:02:19;15.60;;;13.18;;
7823;SDS011;3957;48.61947800;9.05303100;2023-05-21T00:03:21;17.23;;;13.60;;
7823;SDS011;3957;48.61947800;9.05303100;2023-05-21T00:04:27;15.90;;;12.68;;
7823;SDS011;3957;48.61947800;9.05303100;2023-05-21T00:05:29;15.07;;;12.30;;
7823;SDS011;3957;48.61947800;9.05303100;2023-05-21T00:06:31;15.68;;;12.85;;
7823;SDS011;3957;48.61947800;9.05303100;2023-05-21T00:07:33;18.63;;;13.50;;
7823;SDS011;3957;48.61947800;9.05303100;2023-05-21T00:08:34;17.25;;;13.35;;
7823;SDS011;3957;48.61947800;9.05303100;2023-05-21T00:09:36;16.20;;;12.32;;
7823;SDS011;3957;48.61947800;9.05303100;2023-05-21T00:10:41;12.27;;;11.00;;
7823;SDS011;3957;48.61947800;9.05303100;2023-05-21T00:11:42;15.80;;;12.73;;
7823;SDS011;3957;48.61947800;9.05303100;2023-05-21T00:12:44;15.45;;;12.38;;
7823;SDS011;3957;48.61947800;9.05303100;2023-05-21T00:13:46;15.63;;;12.80;;
7823;SDS011;3957;48.61947800;9.05303100;2023-05-21T00:14:47;13.50;;;12.00;;
7823;SDS011;3957;48.61947800;9.05303100;2023-05-21T00:15:49;15.77;;;13.10;;
7823;SDS011;3957;48.61947800;9.05303100;2023-05-21T00:16:51;15.63;;;13.27;;
7823;SDS011;3957;48.61947800;9.05303100;2023-05-21T00:17:52;14.48;;;12.93;;
7823;SDS011;3957;48.61947800;9.05303100;2023-05-21T00:18:54;16.98;;;13.82;;
7823;SDS011;3957;48.61947800;9.05303100;2023-05-21T00:19:58;14.90;;;13.30;;
7823;SDS011;3957;48.61947800;9.05303100;2023-05-21T00:21:00;15.63;;;13.30;;
7823;SDS011;3957;48.61947800;9.05303100;2023-05-21T00:22:02;14.45;;;12.30;;
7823;SDS011;3957;48.61947800;9.05303100;2023-05-21T00:23:04;14.15;;;12.60;;
7823;SDS011;3957;48.61947800;9.05303100;2023-05-21T00:24:06;16.27;;;11.77;;
7823;SDS011;3957;48.61947800;9.05303100;2023-05-21T00:25:08;15.73;;;13.18;;
7823;SDS011;3957;48.61947800;9.05303100;2023-05-21T00:26:11;15.68;;;13.00;;
7823;SDS011;3957;48.61947800;9.05303100;2023-05-21T00:27:15;17.50;;;13.83;;
7823;SDS011;3957;48.61947800;9.05303100;2023-05-21T00:28:16;16.23;;;14.48;;
7823;SDS011;3957;48.61947800;9.05303100;2023-05-21T00:29:18;20.10;;;14.00;;
7823;SDS011;3957;48.61947800;9.05303100;2023-05-21T00:30:21;18.73;;;13.93;;
7823;SDS011;3957;48.61947800;9.05303100;2023-05-21T00:31:23;17.38;;;13.45;;
7823;SDS011;3957;48.61947800;9.05303100;2023-05-21T00:32:24;19.40;;;15.40;;
7823;SDS011;3957;48.61947800;9.05303100;2023-05-21T00:33:26;18.73;;;16.15;;
7823;SDS011;3957;48.61947800;9.05303100;2023-05-21T00:34:29;18.67;;;15.98;;
7823;SDS011;3957;48.61947800;9.05303100;2023-05-21T00:35:31;16.50;;;13.82;;
7823;SDS011;3957;48.61947800;9.05303100;2023-05-21T00:36:32;17.50;;;14.75;;
7823;SDS011;3957;48.61947800;9.05303100;2023-05-21T00:37:34;18.73;;;15.10;;
7823;SDS011;3957;48.61947800;9.05303100;2023-05-21T00:38:36;16.02;;;14.00;;
7823;SDS011;3957;48.61947800;9.05303100;2023-05-21T00:39:38;15.90;;;14.05;;
7823;SDS011;3957;48.61947800;9.05303100;2023-05-21T00:40:39;15.98;;;13.52;;
7823;SDS011;3957;48.61947800;9.05303100;2023-05-21T00:41:41;18.80;;;15.13;;
7823;SDS011;3957;48.61947800;9.05303100;2023-05-21T00:42:47;17.30;;;14.55;;
7823;SDS011;3957;48.61947800;9.05303100;2023-05-21T00:43:50;15.50;;;13.80;;
7823;SDS011;3957;48.61947800;9.05303100;2023-05-21T00:44:53;16.55;;;13.82;;
7823;SDS011;3957;48.61947800;9.05303100;2023-05-21T00:45:54;19.05;;;15.60;;
7823;SDS011;3957;48.61947800;9.05303100;2023-05-21T00:46:56;15.60;;;13.75;;
7823;SDS011;3957;48.61947800;9.05303100;2023-05-21T00:47:59;19.55;;;15.05;;
7823;SDS011;3957;48.61947800;9.05303100;2023-05-21T00:49:03;16.67;;;14.63;;
7823;SDS011;3957;48.61947800;9.05303100;2023-05-21T00:50:04;17.83;;;14.23;;
7823;SDS011;3957;48.61947800;9.05303100;2023-05-21T00:51:06;16.47;;;14.43;;
7823;SDS011;3957;48.61947800;9.05303100;2023-05-21T00:52:08;17.30;;;14.88;;
7823;SDS011;3957;48.61947800;9.05303100;2023-05-21T00:53:10;15.85;;;14.18;;
7823;SDS011;3957;48.61947800;9.05303100;2023-05-21T00:54:14;18.08;;;15.75;;
7823;SDS011;3957;48.61947800;9.05303100;2023-05-21T00:55:15;17.10;;;14.07;;
7823;SDS011;3957;48.61947800;9.05303100;2023-05-21T00:56:18;15.90;;;14.20;;
7823;SDS011;3957;48.61947800;9.05303100;2023-05-21T00:57:24;17.27;;;14.65;;
7823;SDS011;3957;48.61947800;9.05303100;2023-05-21T00:58:27;15.85;;;14.15;;
7823;SDS011;3957;48.61947800;9.05303100;2023-05-21T00:59:30;15.77;;;13.45;;
7823;SDS011;3957;48.61947800;9.05303100;2023-05-21T01:00:34;15.43;;;13.57;;
7823;SDS011;3957;48.61947800;9.05303100;2023-05-21T01:01:38;16.25;;;13.75;;
7823;SDS011;3957;48.61947800;9.05303100;2023-05-21T01:02:40;17.63;;;14.73;;
7823;SDS011;3957;48.61947800;9.05303100;2023-05-21T01:03:42;19.52;;;15.45;;
7823;SDS011;3957;48.61947800;9.05303100;2023-05-21T01:04:44;17.37;;;15.07;;
7823;SDS011;3957;48.61947800;9.05303100;2023-05-21T01:05:46;18.60;;;16.55;;
7823;SDS011;3957;48.61947800;9.05303100;2023-05-21T01:06:49;19.45;;;16.20;;
7823;SDS011;3957;48.61947800;9.05303100;2023-05-21T01:07:51;16.70;;;14.90;;
7823;SDS011;3957;48.61947800;9.05303100;2023-05-21T01:08:54;16.40;;;14.07;;
7823;SDS011;3957;48.61947800;9.05303100;2023-05-21T01:09:57;16.88;;;14.60;;
7823;SDS011;3957;48.61947800;9.05303100;2023-05-21T01:10:59;16.85;;;14.70;;
7823;SDS011;3957;48.61947800;9.05303100;2023-05-21T01:12:02;15.55;;;13.45;;
7823;SDS011;3957;48.61947800;9.05303100;2023-05-21T01:13:05;17.85;;;14.73;;
7823;SDS011;3957;48.61947800;9.05303100;2023-05-21T01:14:07;17.33;;;14.20;;
7823;SDS011;3957;48.61947800;9.05303100;2023-05-21T01:15:12;18.05;;;15.50;;
7823;SDS011;3957;48.61947800;9.05303100;2023-05-21T01:16:15;18.65;;;14.75;;
7823;SDS011;3957;48.61947800;9.05303100;2023-05-21T01:17:18;16.02;;;13.88;;
7823;SDS011;3957;48.61947800;9.05303100;2023-05-21T01:18:24;16.08;;;14.23;;
7823;SDS011;3957;48.61947800;9.05303100;2023-05-21T01:19:26;16.88;;;14.10;;
7823;SDS011;3957;48.61947800;9.05303100;2023-05-21T01:20:29;17.05;;;14.38;;
7823;SDS011;3957;48.61947800;9.05303100;2023-05-21T01:21:32;17.20;;;14.65;;
7823;SDS011;3957;48.61947800;9.05303100;2023-05-21T01:22:41;17.77;;;14.93;;
7823;SDS011;3957;48.61947800;9.05303100;2023-05-21T01:23:49;15.60;;;13.65;;
7823;SDS011;3957;48.61947800;9.05303100;2023-05-21T01:24:52;16.60;;;14.20;;
7823;SDS011;3957;48.61947800;9.05303100;2023-05-21T01:25:55;17.70;;;14.50;;
7823;SDS011;3957;48.61947800;9.05303100;2023-05-21T01:26:58;19.00;;;15.93;;
7823;SDS011;3957;48.61947800;9.05303100;2023-05-21T01:28:01;18.88;;;15.25;;
7823;SDS011;3957;48.61947800;9.05303100;2023-05-21T01:29:06;17.92;;;14.70;;
7823;SDS011;3957;48.61947800;9.05303100;2023-05-21T01:30:13;19.67;;;15.60;;
7823;SDS011;3957;48.61947800;9.05303100;2023-05-21T01:31:22;20.52;;;16.50;;
7823;SDS011;3957;48.61947800;9.05303100;2023-05-21T01:32:33;21.63;;;17.02;;
7823;SDS011;3957;48.61947800;9.05303100;2023-05-21T01:33:40;21.80;;;18.15;;
7823;SDS011;3957;48.61947800;9.05303100;2023-05-21T01:34:56;22.20;;;17.00;;
7823;SDS011;3957;48.61947800;9.05303100;2023-05-21T01:36:04;21.48;;;16.60;;
7823;SDS011;3957;48.61947800;9.05303100;2023-05-21T01:37:17;21.48;;;17.48;;
7823;SDS011;3957;48.61947800;9.05303100;2023-05-21T01:39:51;21.67;;;17.35;;
7823;SDS011;3957;48.61947800;9.05303100;2023-05-21T01:40:59;19.23;;;16.23;;
7823;SDS011;3957;48.61947800;9.05303100;2023-05-21T01:42:08;22.25;;;17.67;;
7823;SDS011;3957;48.61947800;9.05303100;2023-05-21T01:43:11;20.70;;;18.17;;
7823;SDS011;3957;48.61947800;9.05303100;2023-05-21T01:44:14;21.48;;;17.30;;
7823;SDS011;3957;48.61947800;9.05303100;2023-05-21T01:45:19;20.92;;;18.17;;
7823;SDS011;3957;48.61947800;9.05303100;2023-05-21T01:46:25;21.52;;;16.92;;
7823;SDS011;3957;48.61947800;9.05303100;2023-05-21T01:47:29;22.77;;;17.17;;
7823;SDS011;3957;48.61947800;9.05303100;2023-05-21T01:48:33;20.02;;;17.73;;
7823;SDS011;3957;48.61947800;9.05303100;2023-05-21T01:49:35;24.35;;;18.10;;
7823;SDS011;3957;48.61947800;9.05303100;2023-05-21T01:50:37;22.27;;;17.70;;
7823;SDS011;3957;48.61947800;9.05303100;2023-05-21T01:51:41;19.92;;;17.40;;
7823;SDS011;3957;48.61947800;9.05303100;2023-05-21T01:52:53;21.80;;;17.35;;
7823;SDS011;3957;48.61947800;9.05303100;2023-05-21T01:53:57;20.45;;;16.67;;
7823;SDS011;3957;48.61947800;9.05303100;2023-05-21T01:54:58;20.88;;;16.92;;
7823;SDS011;3957;48.61947800;9.05303100;2023-05-21T01:56:00;20.30;;;16.58;;
7823;SDS011;3957;48.61947800;9.05303100;2023-05-21T01:57:03;20.60;;;17.30;;
7823;SDS011;3957;48.61947800;9.05303100;2023-05-21T01:58:05;20.35;;;17.40;;
7823;SDS011;3957;48.61947800;9.05303100;2023-05-21T01:59:06;22.63;;;17.25;;
7823;SDS011;3957;48.61947800;9.05303100;2023-05-21T02:00:09;20.10;;;16.70;;
7823;SDS011;3957;48.61947800;9.05303100;2023-05-21T02:01:19;24.20;;;18.17;;
7823;SDS011;3957;48.61947800;9.05303100;2023-05-21T02:02:21;19.80;;;17.23;;
7823;SDS011;3957;48.61947800;9.05303100;2023-05-21T02:03:24;19.00;;;16.38;;
7823;SDS011;3957;48.61947800;9.05303100;2023-05-21T02:04:27;21.52;;;17.55;;
7823;SDS011;3957;48.61947800;9.05303100;2023-05-21T02:05:29;20.92;;;16.80;;
7823;SDS011;3957;48.61947800;9.05303100;2023-05-21T02:06:31;23.17;;;17.83;;
7823;SDS011;3957;48.61947800;9.05303100;2023-05-21T02:07:32;20.70;;;17.23;;
7823;SDS011;3957;48.61947800;9.05303100;2023-05-21T02:08:34;20.08;;;16.83;;
7823;SDS011;3957;48.61947800;9.05303100;2023-05-21T02:09:36;20.57;;;16.67;;
7823;SDS011;3957;48.61947800;9.05303100;2023-05-21T02:10:37;20.20;;;16.80;;
7823;SDS011;3957;48.61947800;9.05303100;2023-05-21T02:11:39;23.45;;;18.30;;
7823;SDS011;3957;48.61947800;9.05303100;2023-05-21T02:12:41;21.02;;;17.67;;
7823;SDS011;3957;48.61947800;9.05303100;2023-05-21T02:13:43;19.27;;;16.77;;
7823;SDS011;3957;48.61947800;9.05303100;2023-05-21T02:14:46;20.33;;;16.88;;
7823;SDS011;3957;48.61947800;9.05303100;2023-05-21T02:15:50;23.30;;;18.55;;
7823;SDS011;3957;48.61947800;9.05303100;2023-05-21T02:16:56;23.63;;;17.33;;
7823;SDS011;3957;48.61947800;9.05303100;2023-05-21T02:17:58;23.23;;;18.40;;
7823;SDS011;3957;48.61947800;9.05303100;2023-05-21T02:18:59;22.77;;;17.38;;
7823;SDS011;3957;48.61947800;9.05303100;2023-05-21T02:20:01;20.77;;;17.63;;
7823;SDS011;3957;48.61947800;9.05303100;2023-05-21T02:21:11;22.63;;;18.27;;
7823;SDS011;3957;48.61947800;9.05303100;2023-05-21T02:22:13;20.90;;;17.45;;
7823;SDS011;3957;48.61947800;9.05303100;2023-05-21T02:23:14;22.90;;;17.00;;
7823;SDS011;3957;48.61947800;9.05303100;2023-05-21T02:24:16;19.75;;;16.48;;
7823;SDS011;3957;48.61947800;9.05303100;2023-05-21T02:25:18;20.88;;;17.20;;
7823;SDS011;3957;48.61947800;9.05303100;2023-05-21T02:26:20;20.52;;;16.85;;
7823;SDS011;3957;48.61947800;9.05303100;2023-05-21T02:27:22;23.95;;;18.38;;
7823;SDS011;3957;48.61947800;9.05303100;2023-05-21T02:28:25;23.67;;;18.83;;
7823;SDS011;3957;48.61947800;9.05303100;2023-05-21T02:29:27;24.65;;;18.40;;
7823;SDS011;3957;48.61947800;9.05303100;2023-05-21T02:30:29;22.35;;;17.95;;
7823;SDS011;3957;48.61947800;9.05303100;2023-05-21T02:31:31;24.20;;;18.60;;
7823;SDS011;3957;48.61947800;9.05303100;2023-05-21T02:32:33;26.00;;;19.25;;
7823;SDS011;3957;48.61947800;9.05303100;2023-05-21T02:33:35;23.15;;;18.20;;
7823;SDS011;3957;48.61947800;9.05303100;2023-05-21T02:34:37;24.35;;;18.55;;
7823;SDS011;3957;48.61947800;9.05303100;2023-05-21T02:35:42;23.50;;;18.60;;
7823;SDS011;3957;48.61947800;9.05303100;2023-05-21T02:36:45;23.55;;;18.83;;
7823;SDS011;3957;48.61947800;9.05303100;2023-05-21T02:37:52;22.70;;;17.25;;
7823;SDS011;3957;48.61947800;9.05303100;2023-05-21T02:38:54;23.80;;;17.45;;
7823;SDS011;3957;48.61947800;9.05303100;2023-05-21T02:39:57;24.17;;;19.40;;
7823;SDS011;3957;48.61947800;9.05303100;2023-05-21T02:41:00;24.63;;;18.13;;
7823;SDS011;3957;48.61947800;9.05303100;2023-05-21T02:42:02;24.95;;;19.35;;
7823;SDS011;3957;48.61947800;9.05303100;2023-05-21T02:43:03;27.08;;;19.48;;
7823;SDS011;3957;48.61947800;9.05303100;2023-05-21T02:44:05;25.27;;;19.38;;
7823;SDS011;3957;48.61947800;9.05303100;2023-05-21T02:45:07;25.35;;;19.45;;
7823;SDS011;3957;48.61947800;9.05303100;2023-05-21T02:46:11;22.92;;;18.60;;
7823;SDS011;3957;48.61947800;9.05303100;2023-05-21T02:47:13;22.20;;;18.85;;
7823;SDS011;3957;48.61947800;9.05303100;2023-05-21T02:48:15;22.10;;;18.30;;
7823;SDS011;3957;48.61947800;9.05303100;2023-05-21T02:49:17;22.85;;;18.58;;
7823;SDS011;3957;48.61947800;9.05303100;2023-05-21T02:50:20;24.85;;;19.75;;
7823;SDS011;3957;48.61947800;9.05303100;2023-05-21T02:51:32;22.30;;;18.00;;
7823;SDS011;3957;48.61947800;9.05303100;2023-05-21T02:52:33;23.17;;;18.15;;
7823;SDS011;3957;48.61947800;9.05303100;2023-05-21T02:53:35;20.98;;;17.88;;
7823;SDS011;3957;48.61947800;9.05303100;2023-05-21T02:54:37;19.88;;;16.80;;
7823;SDS011;3957;48.61947800;9.05303100;2023-05-21T02:55:39;22.92;;;18.02;;
7823;SDS011;3957;48.61947800;9.05303100;2023-05-21T02:56:42;22.73;;;17.85;;
7823;SDS011;3957;48.61947800;9.05303100;2023-05-21T02:57:43;21.40;;;17.08;;
7823;SDS011;3957;48.61947800;9.05303100;2023-05-21T02:58:45;24.90;;;19.80;;
7823;SDS011;3957;48.61947800;9.05303100;2023-05-21T02:59:47;22.95;;;18.23;;
7823;SDS011;3957;48.61947800;9.05303100;2023-05-21T03:00:48;21.98;;;18.13;;
7823;SDS011;3957;48.61947800;9.05303100;2023-05-21T03:01:50;23.52;;;18.90;;
7823;SDS011;3957;48.61947800;9.05303100;2023-05-21T03:02:52;24.05;;;18.58;;
7823;SDS011;3957;48.61947800;9.05303100;2023-05-21T03:03:54;21.50;;;17.90;;
7823;SDS011;3957;48.61947800;9.05303100;2023-05-21T03:04:56;22.40;;;18.92;;
7823;SDS011;3957;48.61947800;9.05303100;2023-05-21T03:05:57;23.10;;;18.88;;
7823;SDS011;3957;48.61947800;9.05303100;2023-05-21T03:06:59;21.63;;;17.83;;
7823;SDS011;3957;48.61947800;9.05303100;2023-05-21T03:08:02;22.55;;;18.52;;
7823;SDS011;3957;48.61947800;9.05303100;2023-05-21T03:09:03;24.63;;;19.42;;
7823;SDS011;3957;48.61947800;9.05303100;2023-05-21T03:10:06;25.05;;;19.50;;
7823;SDS011;3957;48.61947800;9.05303100;2023-05-21T03:11:08;25.25;;;20.85;;
7823;SDS011;3957;48.61947800;9.05303100;2023-05-21T03:12:10;23.98;;;20.30;;
7823;SDS011;3957;48.61947800;9.05303100;2023-05-21T03:13:11;23.55;;;19.83;;
7823;SDS011;3957;48.61947800;9.05303100;2023-05-21T03:14:13;21.65;;;18.73;;
7823;SDS011;3957;48.61947800;9.05303100;2023-05-21T03:15:15;26.60;;;20.27;;
7823;SDS011;3957;48.61947800;9.05303100;2023-05-21T03:16:17;22.77;;;18.58;;
7823;SDS011;3957;48.61947800;9.05303100;2023-05-21T03:17:18;23.55;;;19.02;;
7823;SDS011;3957;48.61947800;9.05303100;2023-05-21T03:18:21;24.00;;;20.20;;
7823;SDS011;3957;48.61947800;9.05303100;2023-05-21T03:19:23;23.83;;;19.45;;
7823;SDS011;3957;48.61947800;9.05303100;2023-05-21T03:20:25;20.50;;;17.03;;
7823;SDS011;3957;48.61947800;9.05303100;2023-05-21T03:21:28;23.25;;;17.67;;
7823;SDS011;3957;48.61947800;9.05303100;2023-05-21T03:22:30;22.95;;;18.63;;
7823;SDS011;3957;48.61947800;9.05303100;2023-05-21T03:23:32;21.30;;;17.97;;
7823;SDS011;3957;48.61947800;9.05303100;2023-05-21T03:24:34;25.60;;;20.70;;
7823;SDS011;3957;48.61947800;9.05303100;2023-05-21T03:25:37;23.55;;;18.77;;
7823;SDS011;3957;48.61947800;9.05303100;2023-05-21T03:26:39;23.10;;;19.58;;
7823;SDS011;3957;48.61947800;9.05303100;2023-05-21T03:27:41;27.55;;;20.80;;
7823;SDS011;3957;48.61947800;9.05303100;2023-05-21T03:29:03;23.38;;;19.02;;
7823;SDS011;3957;48.61947800;9.05303100;2023-05-21T03:30:04;24.70;;;19.38;;
7823;SDS011;3957;48.61947800;9.05303100;2023-05-21T03:31:16;22.55;;;19.52;;
7823;SDS011;3957;48.61947800;9.05303100;2023-05-21T03:32:22;23.42;;;19.42;;
7823;SDS011;3957;48.61947800;9.05303100;2023-05-21T03:33:30;22.42;;;18.65;;
7823;SDS011;3957;48.61947800;9.05303100;2023-05-21T03:34:32;24.80;;;19.52;;
7823;SDS011;3957;48.61947800;9.05303100;2023-05-21T03:35:37;22.83;;;19.30;;
7823;SDS011;3957;48.61947800;9.05303100;2023-05-21T03:36:38;24.27;;;19.92;;
7823;SDS011;3957;48.61947800;9.05303100;2023-05-21T03:37:40;23.20;;;18.95;;
7823;SDS011;3957;48.61947800;9.05303100;2023-05-21T03:38:42;24.48;;;19.20;;
7823;SDS011;3957;48.61947800;9.05303100;2023-05-21T03:39:43;23.08;;;19.52;;
7823;SDS011;3957;48.61947800;9.05303100;2023-05-21T03:40:45;26.88;;;20.73;;
7823;SDS011;3957;48.61947800;9.05303100;2023-05-21T03:41:47;26.17;;;20.33;;
7823;SDS011;3957;48.61947800;9.05303100;2023-05-21T03:42:56;26.35;;;21.15;;
7823;SDS011;3957;48.61947800;9.05303100;2023-05-21T03:43:58;25.30;;;20.53;;
7823;SDS011;3957;48.61947800;9.05303100;2023-05-21T03:45:05;25.83;;;20.17;;
7823;SDS011;3957;48.61947800;9.05303100;2023-05-21T03:46:10;24.73;;;19.85;;
7823;SDS011;3957;48.61947800;9.05303100;2023-05-21T03:47:30;23.98;;;19.55;;
7823;SDS011;3957;48.61947800;9.05303100;2023-05-21T03:48:34;25.38;;;19.10;;
7823;SDS011;3957;48.61947800;9.05303100;2023-05-21T03:49:36;23.47;;;18.97;;
7823;SDS011;3957;48.61947800;9.05303100;2023-05-21T03:50:38;25.38;;;20.40;;
7823;SDS011;3957;48.61947800;9.05303100;2023-05-21T03:51:39;25.52;;;20.20;;
7823;SDS011;3957;48.61947800;9.05303100;2023-05-21T03:52:45;23.92;;;19.95;;
7823;SDS011;3957;48.61947800;9.05303100;2023-05-21T03:53:46;26.02;;;20.38;;
7823;SDS011;3957;48.61947800;9.05303100;2023-05-21T03:54:48;21.98;;;19.30;;
7823;SDS011;3957;48.61947800;9.05303100;2023-05-21T03:55:50;25.45;;;21.00;;
7823;SDS011;3957;48.61947800;9.05303100;2023-05-21T03:56:57;26.90;;;20.80;;
7823;SDS011;3957;48.61947800;9.05303100;2023-05-21T03:58:00;27.02;;;19.10;;
7823;SDS011;3957;48.61947800;9.05303100;2023-05-21T03:59:02;26.90;;;20.90;;
7823;SDS011;3957;48.61947800;9.05303100;2023-05-21T04:00:06;27.60;;;21.10;;
7823;SDS011;3957;48.61947800;9.05303100;2023-05-21T04:01:16;26.48;;;21.65;;
7823;SDS011;3957;48.61947800;9.05303100;2023-05-21T04:02:18;26.70;;;20.88;;
7823;SDS011;3957;48.61947800;9.05303100;2023-05-21T04:03:21;25.58;;;20.35;;
7823;SDS011;3957;48.61947800;9.05303100;2023-05-21T04:04:23;25.30;;;20.30;;
7823;SDS011;3957;48.61947800;9.05303100;2023-05-21T04:05:25;25.40;;;21.33;;
7823;SDS011;3957;48.61947800;9.05303100;2023-05-21T04:06:26;25.23;;;19.98;;
7823;SDS011;3957;48.61947800;9.05303100;2023-05-21T04:07:29;26.55;;;20.85;;
7823;SDS011;3957;48.61947800;9.05303100;2023-05-21T04:08:31;25.63;;;20.65;;
7823;SDS011;3957;48.61947800;9.05303100;2023-05-21T04:09:32;26.27;;;20.35;;
7823;SDS011;3957;48.61947800;9.05303100;2023-05-21T04:10:37;25.55;;;20.15;;
7823;SDS011;3957;48.61947800;9.05303100;2023-05-21T04:11:38;26.67;;;19.98;;
7823;SDS011;3957;48.61947800;9.05303100;2023-05-21T04:12:40;24.90;;;20.30;;
7823;SDS011;3957;48.61947800;9.05303100;2023-05-21T04:13:41;27.08;;;20.77;;
7823;SDS011;3957;48.61947800;9.05303100;2023-05-21T04:14:43;26.02;;;20.27;;
7823;SDS011;3957;48.61947800;9.05303100;2023-05-21T04:15:45;23.42;;;19.77;;
7823;SDS011;3957;48.61947800;9.05303100;2023-05-21T04:16:47;25.00;;;20.30;;
7823;SDS011;3957;48.61947800;9.05303100;2023-05-21T04:17:49;25.02;;;20.02;;
7823;SDS011;3957;48.61947800;9.05303100;2023-05-21T04:18:52;24.13;;;20.15;;
7823;SDS011;3957;48.61947800;9.05303100;2023-05-21T04:19:58;24.55;;;19.77;;
7823;SDS011;3957;48.61947800;9.05303100;2023-05-21T04:21:00;26.02;;;20.08;;
7823;SDS011;3957;48.61947800;9.05303100;2023-05-21T04:22:03;26.98;;;20.58;;
7823;SDS011;3957;48.61947800;9.05303100;2023-05-21T04:23:05;23.55;;;19.92;;
7823;SDS011;3957;48.61947800;9.05303100;2023-05-21T04:24:07;23.60;;;19.98;;
7823;SDS011;3957;48.61947800;9.05303100;2023-05-21T04:25:35;27.30;;;20.27;;
7823;SDS011;3957;48.61947800;9.05303100;2023-05-21T04:26:36;24.73;;;20.05;;
7823;SDS011;3957;48.61947800;9.05303100;2023-05-21T04:27:42;25.98;;;20.52;;
7823;SDS011;3957;48.61947800;9.05303100;2023-05-21T04:28:48;25.38;;;20.25;;
7823;SDS011;3957;48.61947800;9.05303100;2023-05-21T04:29:50;26.15;;;20.65;;
7823;SDS011;3957;48.61947800;9.05303100;2023-05-21T04:30:52;25.15;;;21.13;;
7823;SDS011;3957;48.61947800;9.05303100;2023-05-21T04:31:54;25.35;;;20.92;;
7823;SDS011;3957;48.61947800;9.05303100;2023-05-21T04:32:57;26.30;;;20.42;;
7823;SDS011;3957;48.61947800;9.05303100;2023-05-21T04:34:00;26.88;;;20.42;;
7823;SDS011;3957;48.61947800;9.05303100;2023-05-21T04:35:02;24.98;;;20.15;;
7823;SDS011;3957;48.61947800;9.05303100;2023-05-21T04:36:05;24.67;;;20.38;;
7823;SDS011;3957;48.61947800;9.05303100;2023-05-21T04:37:10;23.20;;;18.70;;
7823;SDS011;3957;48.61947800;9.05303100;2023-05-21T04:38:12;25.33;;;19.95;;
7823;SDS011;3957;48.61947800;9.05303100;2023-05-21T04:39:14;24.20;;;20.45;;
7823;SDS011;3957;48.61947800;9.05303100;2023-05-21T04:40:17;28.80;;;20.77;;
7823;SDS011;3957;48.61947800;9.05303100;2023-05-21T04:41:24;28.73;;;21.73;;
7823;SDS011;3957;48.61947800;9.05303100;2023-05-21T04:42:26;26.75;;;20.20;;
7823;SDS011;3957;48.61947800;9.05303100;2023-05-21T04:43:29;27.85;;;21.52;;
7823;SDS011;3957;48.61947800;9.05303100;2023-05-21T04:44:34;28.50;;;21.38;;
7823;SDS011;3957;48.61947800;9.05303100;2023-05-21T04:45:36;23.63;;;19.55;;
7823;SDS011;3957;48.61947800;9.05303100;2023-05-21T04:46:38;24.90;;;19.20;;
7823;SDS011;3957;48.61947800;9.05303100;2023-05-21T04:47:42;23.33;;;19.40;;
7823;SDS011;3957;48.61947800;9.05303100;2023-05-21T04:48:44;25.42;;;19.60;;
7823;SDS011;3957;48.61947800;9.05303100;2023-05-21T04:49:47;28.10;;;20.00;;
7823;SDS011;3957;48.61947800;9.05303100;2023-05-21T04:50:48;22.58;;;18.15;;
7823;SDS011;3957;48.61947800;9.05303100;2023-05-21T04:51:50;24.63;;;19.77;;
7823;SDS011;3957;48.61947800;9.05303100;2023-05-21T04:52:52;24.75;;;19.95;;
7823;SDS011;3957;48.61947800;9.05303100;2023-05-21T04:53:55;28.13;;;20.83;;
7823;SDS011;3957;48.61947800;9.05303100;2023-05-21T04:54:58;25.52;;;20.35;;
7823;SDS011;3957;48.61947800;9.05303100;2023-05-21T04:56:00;23.83;;;20.45;;
7823;SDS011;3957;48.61947800;9.05303100;2023-05-21T04:57:05;25.98;;;20.20;;
7823;SDS011;3957;48.61947800;9.05303100;2023-05-21T04:58:07;24.90;;;20.45;;
7823;SDS011;3957;48.61947800;9.05303100;2023-05-21T04:59:12;23.10;;;19.77;;
7823;SDS011;3957;48.61947800;9.05303100;2023-05-21T05:00:15;23.92;;;19.52;;
7823;SDS011;3957;48.61947800;9.05303100;2023-05-21T05:01:19;25.42;;;19.83;;
7823;SDS011;3957;48.61947800;9.05303100;2023-05-21T05:02:23;23.00;;;19.60;;
7823;SDS011;3957;48.61947800;9.05303100;2023-05-21T05:03:25;21.23;;;18.65;;
7823;SDS011;3957;48.61947800;9.05303100;2023-05-21T05:04:27;20.25;;;17.35;;
7823;SDS011;3957;48.61947800;9.05303100;2023-05-21T05:05:29;23.77;;;19.58;;
7823;SDS011;3957;48.61947800;9.05303100;2023-05-21T05:06:31;27.45;;;20.25;;
7823;SDS011;3957;48.61947800;9.05303100;2023-05-21T05:07:33;24.15;;;20.52;;
7823;SDS011;3957;48.61947800;9.05303100;2023-05-21T05:08:34;24.02;;;18.65;;
7823;SDS011;3957;48.61947800;9.05303100;2023-05-21T05:09:37;24.98;;;20.20;;
7823;SDS011;3957;48.61947800;9.05303100;2023-05-21T05:10:39;24.58;;;19.20;;
7823;SDS011;3957;48.61947800;9.05303100;2023-05-21T05:11:41;23.67;;;19.13;;
7823;SDS011;3957;48.61947800;9.05303100;2023-05-21T05:12:43;26.38;;;19.60;;
7823;SDS011;3957;48.61947800;9.05303100;2023-05-21T05:13:44;21.23;;;17.70;;
7823;SDS011;3957;48.61947800;9.05303100;2023-05-21T05:14:46;20.13;;;17.85;;
7823;SDS011;3957;48.61947800;9.05303100;2023-05-21T05:15:48;22.98;;;19.17;;
7823;SDS011;3957;48.61947800;9.05303100;2023-05-21T05:16:52;20.40;;;18.17;;
7823;SDS011;3957;48.61947800;9.05303100;2023-05-21T05:17:54;22.30;;;19.08;;
7823;SDS011;3957;48.61947800;9.05303100;2023-05-21T05:18:57;21.98;;;17.30;;
7823;SDS011;3957;48.61947800;9.05303100;2023-05-21T05:19:59;23.52;;;19.58;;
7823;SDS011;3957;48.61947800;9.05303100;2023-05-21T05:21:01;21.25;;;18.60;;
7823;SDS011;3957;48.61947800;9.05303100;2023-05-21T05:22:03;20.30;;;18.00;;
7823;SDS011;3957;48.61947800;9.05303100;2023-05-21T05:23:06;22.02;;;18.45;;
7823;SDS011;3957;48.61947800;9.05303100;2023-05-21T05:24:08;24.92;;;18.98;;
7823;SDS011;3957;48.61947800;9.05303100;2023-05-21T05:25:09;21.48;;;17.63;;
7823;SDS011;3957;48.61947800;9.05303100;2023-05-21T05:26:11;24.00;;;17.73;;
7823;SDS011;3957;48.61947800;9.05303100;2023-05-21T05:27:13;25.00;;;19.73;;
7823;SDS011;3957;48.61947800;9.05303100;2023-05-21T05:28:14;25.40;;;18.30;;
7823;SDS011;3957;48.61947800;9.05303100;2023-05-21T05:29:16;21.35;;;18.27;;
7823;SDS011;3957;48.61947800;9.05303100;2023-05-21T05:30:18;21.05;;;17.85;;
7823;SDS011;3957;48.61947800;9.05303100;2023-05-21T05:31:21;24.27;;;18.75;;